sensor_id;sensor_type;location;lat;lon;timestamp;P1;durP1;ratioP1;P2;durP2;ratioP2
63203;SDS011;49297;43.210;27.914;2022-08-21T00:01:51;18.83;;;16.08;;
63203;SDS011;49297;43.210;27.914;2022-08-21T00:04:17;15.98;;;13.85;;
63203;SDS011;49297;43.210;27.914;2022-08-21T00:09:24;20.20;;;16.75;;
63203;SDS011;49297;43.210;27.914;2022-08-21T00:11:50;18.83;;;17.10;;
63203;SDS011;49297;43.210;27.914;2022-08-21T00:14:16;17.48;;;16.08;;
63203;SDS011;49297;43.210;27.914;2022-08-21T00:16:42;18.20;;;16.38;;
63203;SDS011;49297;43.210;27.914;2022-08-21T00:19:08;19.00;;;17.33;;
63203;SDS011;49297;43.210;27.914;2022-08-21T00:21:34;17.70;;;15.85;;
63203;SDS011;49297;43.210;27.914;2022-08-21T00:24:00;17.95;;;16.35;;
63203;SDS011;49297;43.210;27.914;2022-08-21T00:26:26;17.85;;;16.52;;
63203;SDS011;49297;43.210;27.914;2022-08-21T00:31:19;18.67;;;15.77;;
63203;SDS011;49297;43.210;27.914;2022-08-21T00:36:34;17.75;;;16.00;;
63203;SDS011;49297;43.210;27.914;2022-08-21T00:39:01;18.42;;;16.58;;
63203;SDS011;49297;43.210;27.914;2022-08-21T00:41:28;18.05;;;16.30;;
63203;SDS011;49297;43.210;27.914;2022-08-21T00:43:54;17.77;;;16.17;;
63203;SDS011;49297;43.210;27.914;2022-08-21T00:46:21;17.27;;;15.65;;
63203;SDS011;49297;43.210;27.914;2022-08-21T00:48:46;18.50;;;16.80;;
63203;SDS011;49297;43.210;27.914;2022-08-21T00:51:35;18.90;;;17.40;;
63203;SDS011;49297;43.210;27.914;2022-08-21T00:59:11;17.98;;;16.17;;
63203;SDS011;49297;43.210;27.914;2022-08-21T01:01:37;17.50;;;15.80;;
63203;SDS011;49297;43.210;27.914;2022-08-21T01:04:04;17.08;;;15.55;;
63203;SDS011;49297;43.210;27.914;2022-08-21T01:06:29;17.42;;;16.10;;
63203;SDS011;49297;43.210;27.914;2022-08-21T01:08:55;17.10;;;15.45;;
63203;SDS011;49297;43.210;27.914;2022-08-21T01:11:21;16.48;;;15.15;;
63203;SDS011;49297;43.210;27.914;2022-08-21T01:13:47;19.08;;;17.27;;
63203;SDS011;49297;43.210;27.914;2022-08-21T01:16:14;18.20;;;16.63;;
63203;SDS011;49297;43.210;27.914;2022-08-21T01:18:43;18.55;;;16.95;;
63203;SDS011;49297;43.210;27.914;2022-08-21T01:21:12;19.25;;;17.63;;
63203;SDS011;49297;43.210;27.914;2022-08-21T01:23:41;17.95;;;16.35;;
63203;SDS011;49297;43.210;27.914;2022-08-21T01:26:09;18.52;;;16.83;;
63203;SDS011;49297;43.210;27.914;2022-08-21T01:28:37;15.32;;;13.82;;
63203;SDS011;49297;43.210;27.914;2022-08-21T01:31:07;16.92;;;15.25;;
63203;SDS011;49297;43.210;27.914;2022-08-21T01:33:36;16.92;;;15.38;;
63203;SDS011;49297;43.210;27.914;2022-08-21T01:36:02;14.68;;;13.20;;
63203;SDS011;49297;43.210;27.914;2022-08-21T01:38:29;18.55;;;14.48;;
63203;SDS011;49297;43.210;27.914;2022-08-21T01:40:55;15.85;;;12.98;;
63203;SDS011;49297;43.210;27.914;2022-08-21T01:43:21;14.73;;;13.40;;
63203;SDS011;49297;43.210;27.914;2022-08-21T01:45:47;19.83;;;15.63;;
63203;SDS011;49297;43.210;27.914;2022-08-21T01:48:12;16.77;;;13.07;;
63203;SDS011;49297;43.210;27.914;2022-08-21T01:50:38;15.82;;;14.48;;
63203;SDS011;49297;43.210;27.914;2022-08-21T01:55:53;17.45;;;15.88;;
63203;SDS011;49297;43.210;27.914;2022-08-21T01:58:19;21.05;;;16.02;;
63203;SDS011;49297;43.210;27.914;2022-08-21T02:00:45;16.02;;;14.50;;
63203;SDS011;49297;43.210;27.914;2022-08-21T02:03:10;15.20;;;13.80;;
63203;SDS011;49297;43.210;27.914;2022-08-21T02:05:36;17.65;;;15.23;;
63203;SDS011;49297;43.210;27.914;2022-08-21T02:08:02;16.73;;;15.13;;
63203;SDS011;49297;43.210;27.914;2022-08-21T02:10:29;16.65;;;15.07;;
63203;SDS011;49297;43.210;27.914;2022-08-21T02:12:57;15.45;;;14.10;;
63203;SDS011;49297;43.210;27.914;2022-08-21T02:15:26;15.75;;;14.13;;
63203;SDS011;49297;43.210;27.914;2022-08-21T02:20:43;17.67;;;14.43;;
63203;SDS011;49297;43.210;27.914;2022-08-21T02:28:35;18.92;;;17.23;;
63203;SDS011;49297;43.210;27.914;2022-08-21T02:31:04;20.10;;;18.30;;
63203;SDS011;49297;43.210;27.914;2022-08-21T02:36:23;26.52;;;23.75;;
63203;SDS011;49297;43.210;27.914;2022-08-21T02:38:49;25.40;;;21.92;;
63203;SDS011;49297;43.210;27.914;2022-08-21T02:41:16;24.35;;;22.00;;
63203;SDS011;49297;43.210;27.914;2022-08-21T02:43:44;27.95;;;25.50;;
63203;SDS011;49297;43.210;27.914;2022-08-21T02:46:11;26.60;;;24.10;;
63203;SDS011;49297;43.210;27.914;2022-08-21T02:48:38;30.13;;;27.20;;
63203;SDS011;49297;43.210;27.914;2022-08-21T02:51:06;27.33;;;24.77;;
63203;SDS011;49297;43.210;27.914;2022-08-21T02:53:34;29.25;;;26.65;;
63203;SDS011;49297;43.210;27.914;2022-08-21T02:56:02;27.08;;;24.65;;
63203;SDS011;49297;43.210;27.914;2022-08-21T02:58:31;29.52;;;25.40;;
63203;SDS011;49297;43.210;27.914;2022-08-21T03:01:04;31.35;;;27.58;;
63203;SDS011;49297;43.210;27.914;2022-08-21T03:08:56;28.02;;;25.35;;
63203;SDS011;49297;43.210;27.914;2022-08-21T03:11:22;26.10;;;23.70;;
63203;SDS011;49297;43.210;27.914;2022-08-21T03:13:48;26.42;;;23.80;;
63203;SDS011;49297;43.210;27.914;2022-08-21T03:16:14;28.15;;;24.40;;
63203;SDS011;49297;43.210;27.914;2022-08-21T03:21:21;27.52;;;25.27;;
63203;SDS011;49297;43.210;27.914;2022-08-21T03:23:47;26.20;;;23.77;;
63203;SDS011;49297;43.210;27.914;2022-08-21T03:26:13;24.00;;;21.70;;
63203;SDS011;49297;43.210;27.914;2022-08-21T03:28:38;25.63;;;22.98;;
63203;SDS011;49297;43.210;27.914;2022-08-21T03:31:04;23.42;;;21.13;;
63203;SDS011;49297;43.210;27.914;2022-08-21T03:33:30;23.58;;;21.38;;
63203;SDS011;49297;43.210;27.914;2022-08-21T03:38:39;22.88;;;20.73;;
63203;SDS011;49297;43.210;27.914;2022-08-21T03:41:05;25.13;;;23.02;;
63203;SDS011;49297;43.210;27.914;2022-08-21T03:43:32;26.10;;;23.70;;
63203;SDS011;49297;43.210;27.914;2022-08-21T03:45:58;34.70;;;31.77;;
63203;SDS011;49297;43.210;27.914;2022-08-21T03:48:26;52.30;;;48.20;;
63203;SDS011;49297;43.210;27.914;2022-08-21T03:50:53;79.57;;;72.68;;
63203;SDS011;49297;43.210;27.914;2022-08-21T03:53:19;107.78;;;98.97;;
63203;SDS011;49297;43.210;27.914;2022-08-21T03:55:46;95.53;;;87.53;;
63203;SDS011;49297;43.210;27.914;2022-08-21T03:58:14;83.82;;;76.70;;
63203;SDS011;49297;43.210;27.914;2022-08-21T04:00:41;69.18;;;63.47;;
63203;SDS011;49297;43.210;27.914;2022-08-21T04:03:08;60.05;;;55.08;;
63203;SDS011;49297;43.210;27.914;2022-08-21T04:05:33;53.38;;;48.95;;
63203;SDS011;49297;43.210;27.914;2022-08-21T04:08:01;34.42;;;31.50;;
63203;SDS011;49297;43.210;27.914;2022-08-21T04:10:31;32.20;;;28.83;;
63203;SDS011;49297;43.210;27.914;2022-08-21T04:12:59;37.92;;;34.72;;
63203;SDS011;49297;43.210;27.914;2022-08-21T04:15:26;35.25;;;32.17;;
63203;SDS011;49297;43.210;27.914;2022-08-21T04:17:52;31.13;;;27.98;;
63203;SDS011;49297;43.210;27.914;2022-08-21T04:20:18;27.05;;;24.85;;
63203;SDS011;49297;43.210;27.914;2022-08-21T04:22:46;23.70;;;21.67;;
63203;SDS011;49297;43.210;27.914;2022-08-21T04:25:14;33.78;;;31.10;;
63203;SDS011;49297;43.210;27.914;2022-08-21T04:27:40;32.33;;;29.52;;
63203;SDS011;49297;43.210;27.914;2022-08-21T04:30:07;28.20;;;25.95;;
63203;SDS011;49297;43.210;27.914;2022-08-21T04:32:35;29.02;;;26.63;;
63203;SDS011;49297;43.210;27.914;2022-08-21T04:35:03;29.27;;;26.92;;
63203;SDS011;49297;43.210;27.914;2022-08-21T04:37:31;27.33;;;24.90;;
63203;SDS011;49297;43.210;27.914;2022-08-21T04:39:57;27.02;;;24.85;;
63203;SDS011;49297;43.210;27.914;2022-08-21T04:42:26;27.10;;;24.67;;
63203;SDS011;49297;43.210;27.914;2022-08-21T04:44:53;25.13;;;22.80;;
63203;SDS011;49297;43.210;27.914;2022-08-21T04:47:20;24.90;;;22.30;;
63203;SDS011;49297;43.210;27.914;2022-08-21T04:49:46;21.45;;;19.63;;
63203;SDS011;49297;43.210;27.914;2022-08-21T04:52:14;16.83;;;15.45;;
63203;SDS011;49297;43.210;27.914;2022-08-21T04:54:43;16.52;;;15.13;;
63203;SDS011;49297;43.210;27.914;2022-08-21T04:57:11;16.95;;;15.38;;
63203;SDS011;49297;43.210;27.914;2022-08-21T04:59:43;16.48;;;15.10;;
63203;SDS011;49297;43.210;27.914;2022-08-21T05:02:12;13.25;;;12.25;;
63203;SDS011;49297;43.210;27.914;2022-08-21T05:04:42;13.32;;;12.10;;
63203;SDS011;49297;43.210;27.914;2022-08-21T05:07:12;14.05;;;12.82;;
63203;SDS011;49297;43.210;27.914;2022-08-21T05:09:42;12.98;;;11.75;;
63203;SDS011;49297;43.210;27.914;2022-08-21T05:12:08;12.40;;;11.15;;
63203;SDS011;49297;43.210;27.914;2022-08-21T05:17:30;14.52;;;13.23;;
63203;SDS011;49297;43.210;27.914;2022-08-21T05:19:56;20.58;;;13.30;;
63203;SDS011;49297;43.210;27.914;2022-08-21T05:22:22;12.15;;;11.02;;
63203;SDS011;49297;43.210;27.914;2022-08-21T05:24:50;12.95;;;11.88;;
63203;SDS011;49297;43.210;27.914;2022-08-21T05:27:16;18.80;;;12.52;;
63203;SDS011;49297;43.210;27.914;2022-08-21T05:32:24;18.25;;;16.75;;
63203;SDS011;49297;43.210;27.914;2022-08-21T05:34:50;20.33;;;16.88;;
63203;SDS011;49297;43.210;27.914;2022-08-21T05:37:16;17.90;;;16.60;;
63203;SDS011;49297;43.210;27.914;2022-08-21T05:39:42;17.50;;;16.08;;
63203;SDS011;49297;43.210;27.914;2022-08-21T05:44:41;19.63;;;18.13;;
63203;SDS011;49297;43.210;27.914;2022-08-21T05:47:08;19.60;;;17.90;;
63203;SDS011;49297;43.210;27.914;2022-08-21T05:52:18;16.00;;;14.57;;
63203;SDS011;49297;43.210;27.914;2022-08-21T05:57:27;21.27;;;18.90;;
63203;SDS011;49297;43.210;27.914;2022-08-21T05:59:52;18.63;;;16.83;;
63203;SDS011;49297;43.210;27.914;2022-08-21T06:02:19;18.63;;;16.90;;
63203;SDS011;49297;43.210;27.914;2022-08-21T06:04:46;17.25;;;15.70;;
63203;SDS011;49297;43.210;27.914;2022-08-21T06:07:13;18.63;;;16.63;;
63203;SDS011;49297;43.210;27.914;2022-08-21T06:09:39;19.23;;;17.38;;
63203;SDS011;49297;43.210;27.914;2022-08-21T06:12:09;25.20;;;17.48;;
63203;SDS011;49297;43.210;27.914;2022-08-21T06:17:13;23.10;;;21.15;;
63203;SDS011;49297;43.210;27.914;2022-08-21T06:19:40;22.50;;;20.45;;
63203;SDS011;49297;43.210;27.914;2022-08-21T06:22:06;19.60;;;17.80;;
63203;SDS011;49297;43.210;27.914;2022-08-21T06:24:32;16.58;;;13.40;;
63203;SDS011;49297;43.210;27.914;2022-08-21T06:26:58;15.23;;;13.73;;
63203;SDS011;49297;43.210;27.914;2022-08-21T06:29:30;17.63;;;16.15;;
63203;SDS011;49297;43.210;27.914;2022-08-21T06:31:57;16.23;;;14.75;;
63203;SDS011;49297;43.210;27.914;2022-08-21T06:34:23;18.70;;;17.15;;
63203;SDS011;49297;43.210;27.914;2022-08-21T06:36:49;18.23;;;16.63;;
63203;SDS011;49297;43.210;27.914;2022-08-21T06:39:14;15.52;;;14.20;;
63203;SDS011;49297;43.210;27.914;2022-08-21T06:41:40;24.98;;;14.05;;
63203;SDS011;49297;43.210;27.914;2022-08-21T06:44:06;33.47;;;13.85;;
63203;SDS011;49297;43.210;27.914;2022-08-21T06:51:39;9.32;;;8.52;;
63203;SDS011;49297;43.210;27.914;2022-08-21T06:54:05;10.40;;;9.27;;
63203;SDS011;49297;43.210;27.914;2022-08-21T06:56:31;11.73;;;10.23;;
63203;SDS011;49297;43.210;27.914;2022-08-21T07:01:40;9.93;;;9.13;;
63203;SDS011;49297;43.210;27.914;2022-08-21T07:04:06;9.02;;;8.43;;
63203;SDS011;49297;43.210;27.914;2022-08-21T07:06:32;10.07;;;9.23;;
63203;SDS011;49297;43.210;27.914;2022-08-21T07:08:58;10.45;;;9.45;;
63203;SDS011;49297;43.210;27.914;2022-08-21T07:11:24;9.13;;;8.35;;
63203;SDS011;49297;43.210;27.914;2022-08-21T07:16:39;9.93;;;8.80;;
63203;SDS011;49297;43.210;27.914;2022-08-21T07:19:04;8.30;;;7.60;;
63203;SDS011;49297;43.210;27.914;2022-08-21T07:21:30;9.93;;;7.45;;
63203;SDS011;49297;43.210;27.914;2022-08-21T07:23:56;8.35;;;7.70;;
63203;SDS011;49297;43.210;27.914;2022-08-21T07:26:23;8.07;;;7.28;;
63203;SDS011;49297;43.210;27.914;2022-08-21T07:28:50;7.65;;;7.00;;
63203;SDS011;49297;43.210;27.914;2022-08-21T07:31:17;7.47;;;6.75;;
63203;SDS011;49297;43.210;27.914;2022-08-21T07:33:44;8.95;;;7.90;;
63203;SDS011;49297;43.210;27.914;2022-08-21T07:36:11;7.45;;;5.95;;
63203;SDS011;49297;43.210;27.914;2022-08-21T07:38:37;8.27;;;6.38;;
63203;SDS011;49297;43.210;27.914;2022-08-21T07:41:05;6.90;;;6.30;;
63203;SDS011;49297;43.210;27.914;2022-08-21T07:43:36;7.50;;;6.83;;
63203;SDS011;49297;43.210;27.914;2022-08-21T07:46:02;7.10;;;6.40;;
63203;SDS011;49297;43.210;27.914;2022-08-21T07:48:28;6.95;;;6.35;;
63203;SDS011;49297;43.210;27.914;2022-08-21T07:53:51;5.78;;;5.28;;
63203;SDS011;49297;43.210;27.914;2022-08-21T07:58:59;7.05;;;5.82;;
63203;SDS011;49297;43.210;27.914;2022-08-21T08:01:28;6.53;;;5.93;;
63203;SDS011;49297;43.210;27.914;2022-08-21T08:03:53;10.43;;;6.20;;
63203;SDS011;49297;43.210;27.914;2022-08-21T08:06:20;6.20;;;5.60;;
63203;SDS011;49297;43.210;27.914;2022-08-21T08:08:46;8.95;;;5.25;;
63203;SDS011;49297;43.210;27.914;2022-08-21T08:11:12;8.80;;;5.60;;
63203;SDS011;49297;43.210;27.914;2022-08-21T08:13:42;7.32;;;5.80;;
63203;SDS011;49297;43.210;27.914;2022-08-21T08:18:54;6.93;;;5.95;;
63203;SDS011;49297;43.210;27.914;2022-08-21T08:21:20;7.55;;;6.38;;
63203;SDS011;49297;43.210;27.914;2022-08-21T08:23:47;6.80;;;6.13;;
63203;SDS011;49297;43.210;27.914;2022-08-21T08:26:13;6.25;;;5.35;;
63203;SDS011;49297;43.210;27.914;2022-08-21T08:28:40;6.50;;;5.53;;
63203;SDS011;49297;43.210;27.914;2022-08-21T08:33:54;7.13;;;5.82;;
63203;SDS011;49297;43.210;27.914;2022-08-21T08:36:20;6.20;;;5.05;;
63203;SDS011;49297;43.210;27.914;2022-08-21T08:38:59;10.13;;;7.70;;
63203;SDS011;49297;43.210;27.914;2022-08-21T08:41:26;6.93;;;6.22;;
63203;SDS011;49297;43.210;27.914;2022-08-21T08:43:53;7.43;;;5.40;;
63203;SDS011;49297;43.210;27.914;2022-08-21T08:46:24;8.68;;;6.30;;
63203;SDS011;49297;43.210;27.914;2022-08-21T08:49:03;8.75;;;7.05;;
63203;SDS011;49297;43.210;27.914;2022-08-21T08:54:30;7.28;;;6.65;;
63203;SDS011;49297;43.210;27.914;2022-08-21T08:57:03;7.57;;;6.80;;
63203;SDS011;49297;43.210;27.914;2022-08-21T08:59:40;9.73;;;7.47;;
63203;SDS011;49297;43.210;27.914;2022-08-21T09:02:11;8.75;;;7.07;;
63203;SDS011;49297;43.210;27.914;2022-08-21T09:04:38;8.23;;;7.28;;
63203;SDS011;49297;43.210;27.914;2022-08-21T09:18:15;12.18;;;8.30;;
63203;SDS011;49297;43.210;27.914;2022-08-21T09:21:10;12.10;;;8.38;;
63203;SDS011;49297;43.210;27.914;2022-08-21T09:26:27;12.88;;;8.43;;
63203;SDS011;49297;43.210;27.914;2022-08-21T09:29:06;8.57;;;7.77;;
63203;SDS011;49297;43.210;27.914;2022-08-21T09:31:36;8.27;;;7.45;;
63203;SDS011;49297;43.210;27.914;2022-08-21T09:34:06;8.43;;;6.70;;
63203;SDS011;49297;43.210;27.914;2022-08-21T09:36:37;9.50;;;8.30;;
63203;SDS011;49297;43.210;27.914;2022-08-21T09:39:06;8.75;;;8.02;;
63203;SDS011;49297;43.210;27.914;2022-08-21T09:41:34;9.85;;;6.78;;
63203;SDS011;49297;43.210;27.914;2022-08-21T09:44:02;8.90;;;8.10;;
63203;SDS011;49297;43.210;27.914;2022-08-21T09:46:29;8.10;;;7.30;;
63203;SDS011;49297;43.210;27.914;2022-08-21T09:48:57;9.40;;;7.60;;
63203;SDS011;49297;43.210;27.914;2022-08-21T09:51:30;9.32;;;8.35;;
63203;SDS011;49297;43.210;27.914;2022-08-21T09:54:18;10.57;;;9.33;;
63203;SDS011;49297;43.210;27.914;2022-08-21T09:56:56;9.20;;;7.78;;
63203;SDS011;49297;43.210;27.914;2022-08-21T09:59:43;7.97;;;7.28;;
63203;SDS011;49297;43.210;27.914;2022-08-21T10:02:27;8.35;;;7.40;;
63203;SDS011;49297;43.210;27.914;2022-08-21T10:05:03;9.73;;;7.43;;
63203;SDS011;49297;43.210;27.914;2022-08-21T10:07:36;9.50;;;8.25;;
63203;SDS011;49297;43.210;27.914;2022-08-21T10:10:08;9.65;;;8.52;;
63203;SDS011;49297;43.210;27.914;2022-08-21T10:12:57;8.52;;;7.80;;
63203;SDS011;49297;43.210;27.914;2022-08-21T10:18:38;8.98;;;8.07;;
63203;SDS011;49297;43.210;27.914;2022-08-21T10:21:15;11.02;;;7.70;;
63203;SDS011;49297;43.210;27.914;2022-08-21T10:24:00;9.68;;;8.77;;
63203;SDS011;49297;43.210;27.914;2022-08-21T10:29:57;9.35;;;8.32;;
63203;SDS011;49297;43.210;27.914;2022-08-21T10:32:33;9.73;;;8.93;;
63203;SDS011;49297;43.210;27.914;2022-08-21T10:48:39;9.30;;;8.60;;
63203;SDS011;49297;43.210;27.914;2022-08-21T10:53:55;12.40;;;9.70;;
63203;SDS011;49297;43.210;27.914;2022-08-21T10:56:40;12.32;;;9.98;;
63203;SDS011;49297;43.210;27.914;2022-08-21T10:59:17;10.55;;;9.82;;
63203;SDS011;49297;43.210;27.914;2022-08-21T11:01:57;14.63;;;8.95;;
63203;SDS011;49297;43.210;27.914;2022-08-21T11:04:38;10.85;;;9.95;;
63203;SDS011;49297;43.210;27.914;2022-08-21T11:07:28;10.85;;;9.73;;
63203;SDS011;49297;43.210;27.914;2022-08-21T11:10:33;10.18;;;9.18;;
63203;SDS011;49297;43.210;27.914;2022-08-21T11:13:15;9.27;;;8.27;;
63203;SDS011;49297;43.210;27.914;2022-08-21T11:15:51;10.73;;;9.30;;
63203;SDS011;49297;43.210;27.914;2022-08-21T11:24:00;9.80;;;8.82;;
63203;SDS011;49297;43.210;27.914;2022-08-21T11:27:02;10.02;;;9.05;;
63203;SDS011;49297;43.210;27.914;2022-08-21T11:41:28;10.48;;;9.43;;
63203;SDS011;49297;43.210;27.914;2022-08-21T11:44:01;8.43;;;7.53;;
63203;SDS011;49297;43.210;27.914;2022-08-21T11:55:23;10.90;;;8.27;;
63203;SDS011;49297;43.210;27.914;2022-08-21T12:03:33;7.35;;;6.38;;
63203;SDS011;49297;43.210;27.914;2022-08-21T12:06:04;8.35;;;7.05;;
63203;SDS011;49297;43.210;27.914;2022-08-21T12:08:36;7.88;;;7.10;;
63203;SDS011;49297;43.210;27.914;2022-08-21T12:11:05;9.10;;;8.20;;
63203;SDS011;49297;43.210;27.914;2022-08-21T12:13:53;12.40;;;7.95;;
63203;SDS011;49297;43.210;27.914;2022-08-21T12:16:37;14.32;;;6.72;;
63203;SDS011;49297;43.210;27.914;2022-08-21T12:19:06;7.30;;;6.70;;
63203;SDS011;49297;43.210;27.914;2022-08-21T12:24:35;9.98;;;7.93;;
63203;SDS011;49297;43.210;27.914;2022-08-21T12:29:45;8.27;;;6.57;;
63203;SDS011;49297;43.210;27.914;2022-08-21T12:34:46;6.75;;;6.15;;
63203;SDS011;49297;43.210;27.914;2022-08-21T12:40:04;6.85;;;6.20;;
63203;SDS011;49297;43.210;27.914;2022-08-21T12:42:40;7.38;;;6.78;;
63203;SDS011;49297;43.210;27.914;2022-08-21T12:45:13;8.75;;;6.53;;
63203;SDS011;49297;43.210;27.914;2022-08-21T12:47:55;9.82;;;6.45;;
63203;SDS011;49297;43.210;27.914;2022-08-21T12:50:29;8.27;;;7.40;;
63203;SDS011;49297;43.210;27.914;2022-08-21T12:58:27;7.13;;;6.53;;
63203;SDS011;49297;43.210;27.914;2022-08-21T13:00:54;6.80;;;6.25;;
63203;SDS011;49297;43.210;27.914;2022-08-21T13:06:14;6.82;;;6.20;;
63203;SDS011;49297;43.210;27.914;2022-08-21T13:08:43;11.30;;;6.95;;
63203;SDS011;49297;43.210;27.914;2022-08-21T13:11:10;7.70;;;6.78;;
63203;SDS011;49297;43.210;27.914;2022-08-21T13:13:41;8.60;;;7.05;;
63203;SDS011;49297;43.210;27.914;2022-08-21T13:16:08;12.38;;;7.38;;
63203;SDS011;49297;43.210;27.914;2022-08-21T13:18:36;7.32;;;6.68;;
63203;SDS011;49297;43.210;27.914;2022-08-21T13:21:19;8.10;;;7.30;;
63203;SDS011;49297;43.210;27.914;2022-08-21T13:23:45;12.50;;;8.02;;
63203;SDS011;49297;43.210;27.914;2022-08-21T13:26:12;7.90;;;7.13;;
63203;SDS011;49297;43.210;27.914;2022-08-21T13:28:39;9.05;;;7.57;;
63203;SDS011;49297;43.210;27.914;2022-08-21T13:31:06;9.43;;;7.82;;
63203;SDS011;49297;43.210;27.914;2022-08-21T13:33:35;7.95;;;7.13;;
63203;SDS011;49297;43.210;27.914;2022-08-21T13:38:40;16.58;;;7.95;;
63203;SDS011;49297;43.210;27.914;2022-08-21T13:43:49;7.97;;;7.38;;
63203;SDS011;49297;43.210;27.914;2022-08-21T13:46:22;16.40;;;8.00;;
63203;SDS011;49297;43.210;27.914;2022-08-21T13:48:50;8.68;;;7.43;;
63203;SDS011;49297;43.210;27.914;2022-08-21T13:51:16;9.13;;;7.35;;
63203;SDS011;49297;43.210;27.914;2022-08-21T13:56:21;8.85;;;7.95;;
63203;SDS011;49297;43.210;27.914;2022-08-21T14:01:58;9.07;;;8.15;;
63203;SDS011;49297;43.210;27.914;2022-08-21T14:06:56;10.00;;;8.18;;
63203;SDS011;49297;43.210;27.914;2022-08-21T14:09:32;9.60;;;8.00;;
63203;SDS011;49297;43.210;27.914;2022-08-21T14:12:19;8.57;;;7.75;;
63203;SDS011;49297;43.210;27.914;2022-08-21T14:14:55;10.48;;;9.05;;
63203;SDS011;49297;43.210;27.914;2022-08-21T14:17:29;7.15;;;6.65;;
63203;SDS011;49297;43.210;27.914;2022-08-21T14:19:58;8.50;;;7.75;;
63203;SDS011;49297;43.210;27.914;2022-08-21T14:24:58;9.70;;;7.85;;
63203;SDS011;49297;43.210;27.914;2022-08-21T14:27:28;8.68;;;7.80;;
63203;SDS011;49297;43.210;27.914;2022-08-21T14:35:12;10.15;;;8.65;;
63203;SDS011;49297;43.210;27.914;2022-08-21T14:37:41;8.00;;;7.30;;
63203;SDS011;49297;43.210;27.914;2022-08-21T14:40:08;8.65;;;8.05;;
63203;SDS011;49297;43.210;27.914;2022-08-21T14:42:35;8.18;;;7.47;;
63203;SDS011;49297;43.210;27.914;2022-08-21T14:45:02;14.13;;;8.80;;
63203;SDS011;49297;43.210;27.914;2022-08-21T14:50:03;12.82;;;8.80;;
63203;SDS011;49297;43.210;27.914;2022-08-21T14:52:29;8.63;;;7.65;;
63203;SDS011;49297;43.210;27.914;2022-08-21T14:54:55;10.93;;;8.77;;
63203;SDS011;49297;43.210;27.914;2022-08-21T14:57:21;10.98;;;8.48;;
63203;SDS011;49297;43.210;27.914;2022-08-21T14:59:47;12.10;;;8.82;;
63203;SDS011;49297;43.210;27.914;2022-08-21T15:02:14;8.38;;;7.57;;
63203;SDS011;49297;43.210;27.914;2022-08-21T15:04:41;10.38;;;7.50;;
63203;SDS011;49297;43.210;27.914;2022-08-21T15:07:07;12.75;;;7.70;;
63203;SDS011;49297;43.210;27.914;2022-08-21T15:09:33;10.68;;;8.00;;
63203;SDS011;49297;43.210;27.914;2022-08-21T15:11:59;8.95;;;8.13;;
63203;SDS011;49297;43.210;27.914;2022-08-21T15:14:28;10.05;;;9.05;;
63203;SDS011;49297;43.210;27.914;2022-08-21T15:16:55;9.48;;;8.57;;
63203;SDS011;49297;43.210;27.914;2022-08-21T15:19:22;10.40;;;8.73;;
63203;SDS011;49297;43.210;27.914;2022-08-21T15:22:07;10.23;;;9.18;;
63203;SDS011;49297;43.210;27.914;2022-08-21T15:24:32;10.85;;;9.95;;
63203;SDS011;49297;43.210;27.914;2022-08-21T15:26:59;11.27;;;9.65;;
63203;SDS011;49297;43.210;27.914;2022-08-21T15:29:27;11.07;;;9.45;;
63203;SDS011;49297;43.210;27.914;2022-08-21T15:31:57;9.15;;;8.45;;
63203;SDS011;49297;43.210;27.914;2022-08-21T15:37:15;8.88;;;8.07;;
63203;SDS011;49297;43.210;27.914;2022-08-21T15:39:41;9.10;;;8.30;;
63203;SDS011;49297;43.210;27.914;2022-08-21T15:42:07;9.68;;;8.88;;
63203;SDS011;49297;43.210;27.914;2022-08-21T15:44:33;10.35;;;8.98;;
63203;SDS011;49297;43.210;27.914;2022-08-21T15:46:59;11.98;;;9.10;;
63203;SDS011;49297;43.210;27.914;2022-08-21T15:49:25;8.60;;;7.85;;
63203;SDS011;49297;43.210;27.914;2022-08-21T15:51:51;14.27;;;9.07;;
63203;SDS011;49297;43.210;27.914;2022-08-21T15:54:16;11.30;;;10.07;;
63203;SDS011;49297;43.210;27.914;2022-08-21T15:56:43;9.32;;;8.43;;
63203;SDS011;49297;43.210;27.914;2022-08-21T15:59:14;10.38;;;9.05;;
63203;SDS011;49297;43.210;27.914;2022-08-21T16:01:43;8.73;;;7.82;;
63203;SDS011;49297;43.210;27.914;2022-08-21T16:04:11;12.02;;;8.60;;
63203;SDS011;49297;43.210;27.914;2022-08-21T16:06:44;10.63;;;8.65;;
63203;SDS011;49297;43.210;27.914;2022-08-21T16:09:10;12.30;;;9.23;;
63203;SDS011;49297;43.210;27.914;2022-08-21T16:11:36;10.70;;;8.88;;
63203;SDS011;49297;43.210;27.914;2022-08-21T16:14:01;9.00;;;8.32;;
63203;SDS011;49297;43.210;27.914;2022-08-21T16:16:27;8.38;;;7.57;;
63203;SDS011;49297;43.210;27.914;2022-08-21T16:18:55;9.25;;;8.38;;
63203;SDS011;49297;43.210;27.914;2022-08-21T16:21:21;9.15;;;8.45;;
63203;SDS011;49297;43.210;27.914;2022-08-21T16:23:46;9.68;;;7.88;;
63203;SDS011;49297;43.210;27.914;2022-08-21T16:28:56;8.57;;;7.68;;
63203;SDS011;49297;43.210;27.914;2022-08-21T16:31:24;7.78;;;7.13;;
63203;SDS011;49297;43.210;27.914;2022-08-21T16:33:51;7.05;;;6.43;;
63203;SDS011;49297;43.210;27.914;2022-08-21T16:36:19;7.93;;;7.32;;
63203;SDS011;49297;43.210;27.914;2022-08-21T16:44:04;11.27;;;8.70;;
63203;SDS011;49297;43.210;27.914;2022-08-21T16:46:33;9.57;;;7.78;;
63203;SDS011;49297;43.210;27.914;2022-08-21T16:49:01;9.88;;;7.75;;
63203;SDS011;49297;43.210;27.914;2022-08-21T16:54:09;8.63;;;7.82;;
63203;SDS011;49297;43.210;27.914;2022-08-21T16:56:36;8.35;;;7.57;;
63203;SDS011;49297;43.210;27.914;2022-08-21T16:59:02;8.35;;;7.30;;
63203;SDS011;49297;43.210;27.914;2022-08-21T17:01:30;8.18;;;7.50;;
63203;SDS011;49297;43.210;27.914;2022-08-21T17:03:57;8.40;;;6.80;;
63203;SDS011;49297;43.210;27.914;2022-08-21T17:06:25;14.50;;;8.05;;
63203;SDS011;49297;43.210;27.914;2022-08-21T17:08:52;7.32;;;6.72;;
63203;SDS011;49297;43.210;27.914;2022-08-21T17:14:00;7.97;;;7.28;;
63203;SDS011;49297;43.210;27.914;2022-08-21T17:16:28;6.93;;;6.30;;
63203;SDS011;49297;43.210;27.914;2022-08-21T17:18:54;12.90;;;7.18;;
63203;SDS011;49297;43.210;27.914;2022-08-21T17:21:21;7.75;;;7.05;;
63203;SDS011;49297;43.210;27.914;2022-08-21T17:29:11;7.80;;;7.07;;
63203;SDS011;49297;43.210;27.914;2022-08-21T17:31:40;7.10;;;6.50;;
63203;SDS011;49297;43.210;27.914;2022-08-21T17:34:09;18.50;;;6.78;;
63203;SDS011;49297;43.210;27.914;2022-08-21T17:36:36;8.25;;;7.32;;
63203;SDS011;49297;43.210;27.914;2022-08-21T17:39:02;6.90;;;6.00;;
63203;SDS011;49297;43.210;27.914;2022-08-21T17:41:28;9.68;;;6.60;;
63203;SDS011;49297;43.210;27.914;2022-08-21T17:43:54;7.53;;;5.95;;
63203;SDS011;49297;43.210;27.914;2022-08-21T17:46:22;9.60;;;6.68;;
63203;SDS011;49297;43.210;27.914;2022-08-21T17:48:52;8.05;;;5.75;;
63203;SDS011;49297;43.210;27.914;2022-08-21T17:51:19;7.68;;;6.75;;
63203;SDS011;49297;43.210;27.914;2022-08-21T17:53:46;7.80;;;7.10;;
63203;SDS011;49297;43.210;27.914;2022-08-21T17:58:50;8.07;;;6.38;;
63203;SDS011;49297;43.210;27.914;2022-08-21T18:01:16;7.75;;;6.70;;
63203;SDS011;49297;43.210;27.914;2022-08-21T18:03:43;7.72;;;6.85;;
63203;SDS011;49297;43.210;27.914;2022-08-21T18:06:11;7.15;;;6.55;;